sensor_id;sensor_type;location;lat;lon;timestamp;pressure;altitude;pressure_sealevel;temperature;humidity
59240;BME280;45010;53.640;10.578;2024-02-21T00:01:17;101081.25;;;27.51;32.25
59240;BME280;45010;53.640;10.578;2024-02-21T00:04:17;101097.03;;;27.65;32.24
59240;BME280;45010;53.640;10.578;2024-02-21T00:07:18;101096.22;;;27.64;31.78
59240;BME280;45010;53.640;10.578;2024-02-21T00:10:18;101100.78;;;27.64;32.20
59240;BME280;45010;53.640;10.578;2024-02-21T00:13:18;101100.78;;;27.64;31.90
59240;BME280;45010;53.640;10.578;2024-02-21T00:16:18;101091.69;;;27.65;32.40
59240;BME280;45010;53.640;10.578;2024-02-21T00:19:19;101090.84;;;27.64;31.84
59240;BME280;45010;53.640;10.578;2024-02-21T00:22:19;101084.69;;;27.64;32.11
59240;BME280;45010;53.640;10.578;2024-02-21T00:25:19;101091.69;;;27.65;31.90
59240;BME280;45010;53.640;10.578;2024-02-21T00:28:20;101084.69;;;27.64;32.18
59240;BME280;45010;53.640;10.578;2024-02-21T00:31:21;101083.63;;;27.65;31.81
59240;BME280;45010;53.640;10.578;2024-02-21T00:34:21;101080.97;;;27.65;32.21
59240;BME280;45010;53.640;10.578;2024-02-21T00:37:21;101065.72;;;27.65;32.04
59240;BME280;45010;53.640;10.578;2024-02-21T00:40:22;101055.00;;;27.65;32.14
59240;BME280;45010;53.640;10.578;2024-02-21T00:43:23;101062.75;;;27.67;31.90
59240;BME280;45010;53.640;10.578;2024-02-21T00:46:24;101052.03;;;27.67;32.02
59240;BME280;45010;53.640;10.578;2024-02-21T00:49:24;101052.03;;;27.67;32.10
59240;BME280;45010;53.640;10.578;2024-02-21T00:52:25;101046.69;;;27.67;31.76
59240;BME280;45010;53.640;10.578;2024-02-21T00:55:25;101026.22;;;27.61;32.02
59240;BME280;45010;53.640;10.578;2024-02-21T00:58:25;101034.34;;;27.66;31.99
59240;BME280;45010;53.640;10.578;2024-02-21T01:01:26;101032.72;;;27.65;32.16
59240;BME280;45010;53.640;10.578;2024-02-21T01:04:26;101036.47;;;27.64;31.91
59240;BME280;45010;53.640;10.578;2024-02-21T01:07:26;101028.44;;;27.64;31.91
59240;BME280;45010;53.640;10.578;2024-02-21T01:10:27;101024.59;;;27.60;31.43
59240;BME280;45010;53.640;10.578;2024-02-21T01:13:27;101008.69;;;27.53;31.27
59240;BME280;45010;53.640;10.578;2024-02-21T01:16:27;101011.09;;;27.55;31.88
59240;BME280;45010;53.640;10.578;2024-02-21T01:19:28;101004.13;;;27.53;31.95
59240;BME280;45010;53.640;10.578;2024-02-21T01:22:28;101010.00;;;27.50;31.64
59240;BME280;45010;53.640;10.578;2024-02-21T01:25:28;101005.09;;;27.47;31.39
59240;BME280;45010;53.640;10.578;2024-02-21T01:28:29;101007.22;;;27.45;31.97
59240;BME280;45010;53.640;10.578;2024-02-21T01:31:30;100995.38;;;27.41;31.45
59240;BME280;45010;53.640;10.578;2024-02-21T01:34:31;100997.50;;;27.39;31.94
59240;BME280;45010;53.640;10.578;2024-02-21T01:37:31;100994.72;;;27.34;31.56
59240;BME280;45010;53.640;10.578;2024-02-21T01:40:31;100990.44;;;27.33;31.81
59240;BME280;45010;53.640;10.578;2024-02-21T01:43:32;100974.84;;;27.30;31.90
59240;BME280;45010;53.640;10.578;2024-02-21T01:46:32;100972.66;;;27.26;31.92
59240;BME280;45010;53.640;10.578;2024-02-21T01:49:33;100973.13;;;27.23;32.07
59240;BME280;45010;53.640;10.578;2024-02-21T01:52:34;100963.72;;;27.21;32.11
59240;BME280;45010;53.640;10.578;2024-02-21T01:55:35;100960.72;;;27.17;32.14
59240;BME280;45010;53.640;10.578;2024-02-21T01:58:37;100934.19;;;26.98;31.68
59240;BME280;45010;53.640;10.578;2024-02-21T02:01:38;100955.28;;;27.12;32.05
59240;BME280;45010;53.640;10.578;2024-02-21T02:04:39;100947.50;;;27.10;31.72
59240;BME280;45010;53.640;10.578;2024-02-21T02:07:40;100932.75;;;27.08;32.14
59240;BME280;45010;53.640;10.578;2024-02-21T02:10:40;100921.34;;;27.01;32.20
59240;BME280;45010;53.640;10.578;2024-02-21T02:13:41;100924.63;;;27.03;32.25
59240;BME280;45010;53.640;10.578;2024-02-21T02:16:41;100929.38;;;27.01;31.87
59240;BME280;45010;53.640;10.578;2024-02-21T02:19:41;100913.81;;;26.97;32.20
59240;BME280;45010;53.640;10.578;2024-02-21T02:22:43;100904.66;;;26.93;31.92
59240;BME280;45010;53.640;10.578;2024-02-21T02:25:43;100893.94;;;26.93;32.19
59240;BME280;45010;53.640;10.578;2024-02-21T02:28:44;100885.34;;;26.91;32.18
59240;BME280;45010;53.640;10.578;2024-02-21T02:31:44;100882.06;;;26.89;31.92
59240;BME280;45010;53.640;10.578;2024-02-21T02:34:45;100862.78;;;26.87;31.91
59240;BME280;45010;53.640;10.578;2024-02-21T02:37:49;100845.34;;;26.84;32.30
59240;BME280;45010;53.640;10.578;2024-02-21T02:40:49;100812.91;;;26.81;31.91
59240;BME280;45010;53.640;10.578;2024-02-21T02:43:50;100786.38;;;26.79;31.96
59240;BME280;45010;53.640;10.578;2024-02-21T02:46:50;100762.56;;;26.78;32.38
59240;BME280;45010;53.640;10.578;2024-02-21T02:49:50;100773.28;;;26.78;31.90
59240;BME280;45010;53.640;10.578;2024-02-21T02:52:52;100775.38;;;26.76;32.42
59240;BME280;45010;53.640;10.578;2024-02-21T02:55:52;100806.69;;;26.75;32.18
59240;BME280;45010;53.640;10.578;2024-02-21T02:58:53;100831.78;;;26.74;31.94
59240;BME280;45010;53.640;10.578;2024-02-21T03:01:53;100827.75;;;26.71;32.44
59240;BME280;45010;53.640;10.578;2024-02-21T03:04:53;100827.09;;;26.64;32.43
59240;BME280;45010;53.640;10.578;2024-02-21T03:07:53;100827.75;;;26.71;32.34
59240;BME280;45010;53.640;10.578;2024-02-21T03:10:54;100827.75;;;26.71;32.09
59240;BME280;45010;53.640;10.578;2024-02-21T03:13:55;100818.91;;;26.71;32.35
59240;BME280;45010;53.640;10.578;2024-02-21T03:16:58;100815.69;;;26.69;31.88
59240;BME280;45010;53.640;10.578;2024-02-21T03:19:58;100806.28;;;26.66;32.17
59240;BME280;45010;53.640;10.578;2024-02-21T03:23:00;100808.94;;;26.66;32.26
59240;BME280;45010;53.640;10.578;2024-02-21T03:26:00;100808.69;;;26.68;32.40
59240;BME280;45010;53.640;10.578;2024-02-21T03:29:00;100821.28;;;26.67;32.13
59240;BME280;45010;53.640;10.578;2024-02-21T03:32:01;100812.91;;;26.64;32.36
59240;BME280;45010;53.640;10.578;2024-02-21T03:35:01;100800.66;;;26.51;32.06
59240;BME280;45010;53.640;10.578;2024-02-21T03:38:01;100823.38;;;26.65;32.36
59240;BME280;45010;53.640;10.578;2024-02-21T03:41:02;100830.59;;;26.65;32.21
59240;BME280;45010;53.640;10.578;2024-02-21T03:44:02;100837.78;;;26.64;32.13
59240;BME280;45010;53.640;10.578;2024-02-21T03:47:02;100830.81;;;26.63;32.48
59240;BME280;45010;53.640;10.578;2024-02-21T03:50:03;100832.94;;;26.61;32.16
59240;BME280;45010;53.640;10.578;2024-02-21T03:53:04;100831.31;;;26.60;32.04
59240;BME280;45010;53.640;10.578;2024-02-21T03:56:05;100830.72;;;26.58;32.19
59240;BME280;45010;53.640;10.578;2024-02-21T03:59:09;100840.41;;;26.59;32.37
59240;BME280;45010;53.640;10.578;2024-02-21T04:02:09;100833.41;;;26.58;32.33
59240;BME280;45010;53.640;10.578;2024-02-21T04:05:09;100821.09;;;26.57;32.55
59240;BME280;45010;53.640;10.578;2024-02-21T04:08:13;100815.97;;;26.55;32.44
59240;BME280;45010;53.640;10.578;2024-02-21T04:11:14;100812.50;;;26.55;32.54
59240;BME280;45010;53.640;10.578;2024-02-21T04:14:14;100805.53;;;26.54;32.38
59240;BME280;45010;53.640;10.578;2024-02-21T04:17:15;100794.03;;;26.53;32.14
59240;BME280;45010;53.640;10.578;2024-02-21T04:20:16;100796.94;;;26.52;32.54
59240;BME280;45010;53.640;10.578;2024-02-21T04:23:16;100785.44;;;26.51;32.50
59240;BME280;45010;53.640;10.578;2024-02-21T04:26:16;100785.44;;;26.51;32.03
59240;BME280;45010;53.640;10.578;2024-02-21T04:29:17;100773.13;;;26.50;32.17
59240;BME280;45010;53.640;10.578;2024-02-21T04:32:17;100760.00;;;26.49;32.27
59240;BME280;45010;53.640;10.578;2024-02-21T04:35:17;100760.78;;;26.49;32.22
59240;BME280;45010;53.640;10.578;2024-02-21T04:38:18;100757.31;;;26.49;32.37
59240;BME280;45010;53.640;10.578;2024-02-21T04:41:18;100762.09;;;26.46;32.18
59240;BME280;45010;53.640;10.578;2024-02-21T04:44:18;100761.28;;;26.46;32.22
59240;BME280;45010;53.640;10.578;2024-02-21T04:47:22;100768.50;;;26.45;32.24
59240;BME280;45010;53.640;10.578;2024-02-21T04:50:25;100757.66;;;26.35;32.49
59240;BME280;45010;53.640;10.578;2024-02-21T04:53:25;100759.91;;;26.43;32.19
59240;BME280;45010;53.640;10.578;2024-02-21T04:56:25;100739.41;;;26.32;32.30
59240;BME280;45010;53.640;10.578;2024-02-21T04:59:26;100755.63;;;26.42;32.16
59240;BME280;45010;53.640;10.578;2024-02-21T05:02:26;100760.13;;;26.42;32.65
59240;BME280;45010;53.640;10.578;2024-02-21T05:05:26;100770.28;;;26.40;32.32
59240;BME280;45010;53.640;10.578;2024-02-21T05:08:26;100764.94;;;26.40;32.42
59240;BME280;45010;53.640;10.578;2024-02-21T05:11:27;100773.75;;;26.40;32.43
59240;BME280;45010;53.640;10.578;2024-02-21T05:14:27;100778.31;;;26.40;32.41
59240;BME280;45010;53.640;10.578;2024-02-21T05:17:28;100774.00;;;26.39;32.55
59240;BME280;45010;53.640;10.578;2024-02-21T05:20:28;100776.69;;;26.39;32.65
59240;BME280;45010;53.640;10.578;2024-02-21T05:23:28;100773.19;;;26.38;32.33
59240;BME280;45010;53.640;10.578;2024-02-21T05:26:29;100774.25;;;26.37;32.46
59240;BME280;45010;53.640;10.578;2024-02-21T05:29:29;100765.16;;;26.38;32.26
59240;BME280;45010;53.640;10.578;2024-02-21T05:32:29;100762.72;;;26.37;32.16
59240;BME280;45010;53.640;10.578;2024-02-21T05:35:30;100766.13;;;26.32;32.74
59240;BME280;45010;53.640;10.578;2024-02-21T05:38:30;100753.31;;;26.34;32.66
59240;BME280;45010;53.640;10.578;2024-02-21T05:41:31;100745.72;;;26.26;32.63
59240;BME280;45010;53.640;10.578;2024-02-21T05:44:31;100753.31;;;26.34;32.42
59240;BME280;45010;53.640;10.578;2024-02-21T05:47:31;100760.31;;;26.35;32.45
59240;BME280;45010;53.640;10.578;2024-02-21T05:50:31;100760.31;;;26.35;32.59
59240;BME280;45010;53.640;10.578;2024-02-21T05:53:32;100747.19;;;26.34;32.46
59240;BME280;45010;53.640;10.578;2024-02-21T05:56:32;100753.31;;;26.34;32.43
59240;BME280;45010;53.640;10.578;2024-02-21T05:59:33;100754.63;;;26.31;32.62
59240;BME280;45010;53.640;10.578;2024-02-21T06:02:33;100759.72;;;26.33;32.43
59240;BME280;45010;53.640;10.578;2024-02-21T06:05:37;100770.44;;;26.33;32.41
59240;BME280;45010;53.640;10.578;2024-02-21T06:08:39;100766.13;;;26.32;32.42
59240;BME280;45010;53.640;10.578;2024-02-21T06:11:40;100758.13;;;26.32;32.23
59240;BME280;45010;53.640;10.578;2024-02-21T06:14:40;100766.97;;;26.32;32.33
59240;BME280;45010;53.640;10.578;2024-02-21T06:17:40;100766.97;;;26.32;32.78
59240;BME280;45010;53.640;10.578;2024-02-21T06:20:41;100755.84;;;26.24;32.66
59240;BME280;45010;53.640;10.578;2024-02-21T06:23:42;100772.31;;;26.32;32.56
59240;BME280;45010;53.640;10.578;2024-02-21T06:26:42;100768.72;;;26.27;32.64
59240;BME280;45010;53.640;10.578;2024-02-21T06:29:43;100772.31;;;26.32;32.51
59240;BME280;45010;53.640;10.578;2024-02-21T06:32:43;100784.84;;;26.32;32.89
59240;BME280;45010;53.640;10.578;2024-02-21T06:35:43;100778.94;;;26.30;32.93
59240;BME280;45010;53.640;10.578;2024-02-21T06:38:47;100785.91;;;26.31;32.91
59240;BME280;45010;53.640;10.578;2024-02-21T06:41:47;100778.94;;;26.30;32.77
59240;BME280;45010;53.640;10.578;2024-02-21T06:44:48;100780.56;;;26.31;33.09
59240;BME280;45010;53.640;10.578;2024-02-21T06:47:48;100784.28;;;26.30;32.84
59240;BME280;45010;53.640;10.578;2024-02-21T06:50:48;100780.56;;;26.31;32.82
59240;BME280;45010;53.640;10.578;2024-02-21T06:53:49;100785.91;;;26.31;33.05
59240;BME280;45010;53.640;10.578;2024-02-21T06:56:49;100796.59;;;26.31;32.71
59240;BME280;45010;53.640;10.578;2024-02-21T06:59:49;100796.59;;;26.31;33.13
59240;BME280;45010;53.640;10.578;2024-02-21T07:02:50;100789.38;;;26.31;32.97
59240;BME280;45010;53.640;10.578;2024-02-21T07:05:50;100792.06;;;26.31;33.04
59240;BME280;45010;53.640;10.578;2024-02-21T07:08:50;100796.59;;;26.31;32.77
59240;BME280;45010;53.640;10.578;2024-02-21T07:11:51;100798.22;;;26.32;32.63
59240;BME280;45010;53.640;10.578;2024-02-21T07:14:52;100793.38;;;26.29;32.95
59240;BME280;45010;53.640;10.578;2024-02-21T07:17:52;100797.41;;;26.31;32.83
59240;BME280;45010;53.640;10.578;2024-02-21T07:20:53;100801.94;;;26.31;32.82
59240;BME280;45010;53.640;10.578;2024-02-21T07:23:53;100780.72;;;26.24;32.95
59240;BME280;45010;53.640;10.578;2024-02-21T07:26:54;100797.66;;;26.30;33.05
59240;BME280;45010;53.640;10.578;2024-02-21T07:29:56;100800.34;;;26.30;33.25
59240;BME280;45010;53.640;10.578;2024-02-21T07:32:57;100806.47;;;26.30;32.91
59240;BME280;45010;53.640;10.578;2024-02-21T07:35:57;100800.34;;;26.30;32.85
59240;BME280;45010;53.640;10.578;2024-02-21T07:38:57;100805.69;;;26.30;33.05
59240;BME280;45010;53.640;10.578;2024-02-21T07:41:58;100805.69;;;26.30;33.19
59240;BME280;45010;53.640;10.578;2024-02-21T07:44:58;100800.34;;;26.30;33.53
59240;BME280;45010;53.640;10.578;2024-02-21T07:47:59;100816.38;;;26.30;33.13
59240;BME280;45010;53.640;10.578;2024-02-21T07:50:59;100810.22;;;26.29;33.30
59240;BME280;45010;53.640;10.578;2024-02-21T07:53:59;100816.38;;;26.30;33.50
59240;BME280;45010;53.640;10.578;2024-02-21T07:57:00;100827.06;;;26.30;33.16
59240;BME280;45010;53.640;10.578;2024-02-21T08:00:00;100819.06;;;26.30;33.66
59240;BME280;45010;53.640;10.578;2024-02-21T08:03:00;100821.72;;;26.30;33.63
59240;BME280;45010;53.640;10.578;2024-02-21T08:06:01;100792.00;;;26.14;33.33
59240;BME280;45010;53.640;10.578;2024-02-21T08:09:01;100811.03;;;26.30;33.49
59240;BME280;45010;53.640;10.578;2024-02-21T08:12:02;100810.22;;;26.29;33.26
59240;BME280;45010;53.640;10.578;2024-02-21T08:15:03;100795.00;;;26.30;33.30
59240;BME280;45010;53.640;10.578;2024-02-21T08:18:04;100799.50;;;26.29;33.36
59240;BME280;45010;53.640;10.578;2024-02-21T08:21:04;100797.91;;;26.28;33.31
59240;BME280;45010;53.640;10.578;2024-02-21T08:24:05;100790.59;;;26.24;33.66
59240;BME280;45010;53.640;10.578;2024-02-21T08:27:05;100793.38;;;26.29;33.53
59240;BME280;45010;53.640;10.578;2024-02-21T08:30:06;100791.72;;;26.28;33.30
59240;BME280;45010;53.640;10.578;2024-02-21T08:33:08;100789.06;;;26.28;33.26
59240;BME280;45010;53.640;10.578;2024-02-21T08:36:08;100795.22;;;26.28;33.45
59240;BME280;45010;53.640;10.578;2024-02-21T08:39:08;100790.94;;;26.27;33.36
59240;BME280;45010;53.640;10.578;2024-02-21T08:42:09;100786.38;;;26.28;33.29
59240;BME280;45010;53.640;10.578;2024-02-21T08:45:10;100782.09;;;26.27;33.31
59240;BME280;45010;53.640;10.578;2024-02-21T08:48:10;100781.84;;;26.28;33.44
59240;BME280;45010;53.640;10.578;2024-02-21T08:51:11;100784.75;;;26.27;33.16
59240;BME280;45010;53.640;10.578;2024-02-21T08:54:12;100772.44;;;26.26;33.45
59240;BME280;45010;53.640;10.578;2024-02-21T08:57:12;100774.91;;;26.27;33.24
59240;BME280;45010;53.640;10.578;2024-02-21T09:00:14;100774.06;;;26.27;33.43
59240;BME280;45010;53.640;10.578;2024-02-21T09:03:15;100774.06;;;26.27;33.66
59240;BME280;45010;53.640;10.578;2024-02-21T09:06:15;100781.03;;;26.28;33.89
59240;BME280;45010;53.640;10.578;2024-02-21T09:09:15;100782.69;;;26.29;33.64
59240;BME280;45010;53.640;10.578;2024-02-21T09:12:16;100785.91;;;26.31;33.70
59240;BME280;45010;53.640;10.578;2024-02-21T09:15:16;100794.50;;;26.33;33.84
59240;BME280;45010;53.640;10.578;2024-02-21T09:18:16;100794.03;;;26.36;33.70
59240;BME280;45010;53.640;10.578;2024-02-21T09:21:17;100795.41;;;26.39;33.93
59240;BME280;45010;53.640;10.578;2024-02-21T09:24:17;100784.44;;;26.40;33.65
59240;BME280;45010;53.640;10.578;2024-02-21T09:27:18;100779.69;;;26.42;34.06
59240;BME280;45010;53.640;10.578;2024-02-21T09:30:18;100784.81;;;26.44;33.80
59240;BME280;45010;53.640;10.578;2024-02-21T09:33:19;100773.59;;;26.47;33.68
59240;BME280;45010;53.640;10.578;2024-02-21T09:36:19;100774.97;;;26.50;33.51
59240;BME280;45010;53.640;10.578;2024-02-21T09:39:21;100780.88;;;26.52;33.42
59240;BME280;45010;53.640;10.578;2024-02-21T09:42:21;100782.03;;;26.56;33.91
59240;BME280;45010;53.640;10.578;2024-02-21T09:45:23;100773.44;;;26.54;33.68
59240;BME280;45010;53.640;10.578;2024-02-21T09:48:38;100781.06;;;26.62;33.70
59240;BME280;45010;53.640;10.578;2024-02-21T09:51:43;100780.22;;;26.62;33.22
59240;BME280;45010;53.640;10.578;2024-02-21T09:54:45;100773.59;;;26.64;33.24
59240;BME280;45010;53.640;10.578;2024-02-21T09:57:46;100772.28;;;26.67;33.47
59240;BME280;45010;53.640;10.578;2024-02-21T10:00:47;100774.19;;;26.66;32.82
59240;BME280;45010;53.640;10.578;2024-02-21T10:03:47;100761.59;;;26.67;33.19
59240;BME280;45010;53.640;10.578;2024-02-21T10:06:48;100769.38;;;26.68;33.20
59240;BME280;45010;53.640;10.578;2024-02-21T10:09:48;100763.56;;;26.71;33.07
59240;BME280;45010;53.640;10.578;2024-02-21T10:12:50;100759.81;;;26.72;33.09
59240;BME280;45010;53.640;10.578;2024-02-21T10:16:04;100766.78;;;26.73;32.67
59240;BME280;45010;53.640;10.578;2024-02-21T10:19:04;100777.50;;;26.73;32.72
59240;BME280;45010;53.640;10.578;2024-02-21T10:22:06;100788.75;;;26.76;32.66
59240;BME280;45010;53.640;10.578;2024-02-21T10:28:08;100769.53;;;26.79;32.91
59240;BME280;45010;53.640;10.578;2024-02-21T10:31:09;100770.34;;;26.79;32.52
59240;BME280;45010;53.640;10.578;2024-02-21T10:34:16;100769.03;;;26.82;32.43
59240;BME280;45010;53.640;10.578;2024-02-21T10:37:18;100769.84;;;26.82;32.74
59240;BME280;45010;53.640;10.578;2024-02-21T10:40:18;100766.13;;;26.83;32.42
59240;BME280;45010;53.640;10.578;2024-02-21T10:43:19;100698.41;;;26.43;32.90
59240;BME280;45010;53.640;10.578;2024-02-21T10:46:22;100764.81;;;26.86;32.42
59240;BME280;45010;53.640;10.578;2024-02-21T10:49:24;100766.44;;;26.87;32.27
59240;BME280;45010;53.640;10.578;2024-02-21T10:52:48;100757.09;;;26.90;32.30
59240;BME280;45010;53.640;10.578;2024-02-21T10:55:59;100750.69;;;26.91;32.60
59240;BME280;45010;53.640;10.578;2024-02-21T10:59:05;100739.38;;;26.83;32.20
59240;BME280;45010;53.640;10.578;2024-02-21T11:02:06;100745.34;;;26.91;31.96
59240;BME280;45010;53.640;10.578;2024-02-21T11:05:07;100735.50;;;26.91;31.94
59240;BME280;45010;53.640;10.578;2024-02-21T11:08:07;100729.06;;;26.92;32.43
59240;BME280;45010;53.640;10.578;2024-02-21T11:11:08;100719.88;;;26.88;32.54
59240;BME280;45010;53.640;10.578;2024-02-21T11:14:10;100719.44;;;26.91;32.64
59240;BME280;45010;53.640;10.578;2024-02-21T11:17:17;100714.63;;;26.93;32.51
59240;BME280;45010;53.640;10.578;2024-02-21T11:20:19;100714.22;;;27.02;32.47
59240;BME280;45010;53.640;10.578;2024-02-21T11:23:26;100722.81;;;27.04;32.38
59240;BME280;45010;53.640;10.578;2024-02-21T11:26:28;100701.88;;;27.01;32.21
59240;BME280;45010;53.640;10.578;2024-02-21T11:29:30;100706.81;;;27.09;32.02
59240;BME280;45010;53.640;10.578;2024-02-21T11:32:30;100680.44;;;26.95;32.31
59240;BME280;45010;53.640;10.578;2024-02-21T11:35:32;100686.47;;;27.08;32.20
59240;BME280;45010;53.640;10.578;2024-02-21T11:38:33;100694.28;;;27.15;32.24
59240;BME280;45010;53.640;10.578;2024-02-21T11:41:34;100698.34;;;27.17;31.77
59240;BME280;45010;53.640;10.578;2024-02-21T11:44:37;100676.38;;;27.15;31.58
59240;BME280;45010;53.640;10.578;2024-02-21T11:47:38;100682.88;;;27.24;32.18
59240;BME280;45010;53.640;10.578;2024-02-21T11:50:39;100683.47;;;27.26;32.06
59240;BME280;45010;53.640;10.578;2024-02-21T11:53:39;100677.03;;;27.28;31.92
59240;BME280;45010;53.640;10.578;2024-02-21T11:56:41;100672.25;;;27.30;32.05
59240;BME280;45010;53.640;10.578;2024-02-21T11:59:41;100667.47;;;27.32;31.56
59240;BME280;45010;53.640;10.578;2024-02-21T12:02:42;100637.88;;;27.21;31.68
59240;BME280;45010;53.640;10.578;2024-02-21T12:05:43;100649.81;;;27.36;31.58
59240;BME280;45010;53.640;10.578;2024-02-21T12:08:43;100655.75;;;27.38;31.53
59240;BME280;45010;53.640;10.578;2024-02-21T12:11:44;100653.59;;;27.40;31.81
59240;BME280;45010;53.640;10.578;2024-02-21T12:14:45;100639.66;;;27.38;31.51
59240;BME280;45010;53.640;10.578;2024-02-21T12:17:46;100628.38;;;27.36;31.42
59240;BME280;45010;53.640;10.578;2024-02-21T12:20:48;100632.94;;;27.35;31.67
59240;BME280;45010;53.640;10.578;2024-02-21T12:23:48;100629.44;;;27.35;31.61
59240;BME280;45010;53.640;10.578;2024-02-21T12:26:49;100621.59;;;27.28;31.55
59240;BME280;45010;53.640;10.578;2024-02-21T12:29:50;100624.91;;;27.35;31.30
59240;BME280;45010;53.640;10.578;2024-02-21T12:32:50;100613.31;;;27.30;31.71
59240;BME280;45010;53.640;10.578;2024-02-21T12:35:50;100628.38;;;27.36;31.48
59240;BME280;45010;53.640;10.578;2024-02-21T12:38:51;100622.22;;;27.35;31.44
59240;BME280;45010;53.640;10.578;2024-02-21T12:41:51;100621.97;;;27.37;31.72
59240;BME280;45010;53.640;10.578;2024-02-21T12:44:52;100597.78;;;27.26;31.50
59240;BME280;45010;53.640;10.578;2024-02-21T12:47:55;100620.94;;;27.38;31.56
59240;BME280;45010;53.640;10.578;2024-02-21T12:50:55;100618.50;;;27.36;31.26
59240;BME280;45010;53.640;10.578;2024-02-21T12:53:56;100614.75;;;27.37;31.58
59240;BME280;45010;53.640;10.578;2024-02-21T12:56:56;100610.22;;;27.38;31.59
59240;BME280;45010;53.640;10.578;2024-02-21T12:59:57;100603.97;;;27.32;31.25
59240;BME280;45010;53.640;10.578;2024-02-21T13:02:57;100584.09;;;27.23;31.58
59240;BME280;45010;53.640;10.578;2024-02-21T13:05:58;100596.81;;;27.38;31.28
59240;BME280;45010;53.640;10.578;2024-02-21T13:08:59;100586.56;;;27.30;31.67
59240;BME280;45010;53.640;10.578;2024-02-21T13:12:02;100599.50;;;27.38;31.62
59240;BME280;45010;53.640;10.578;2024-02-21T13:15:02;100595.75;;;27.39;31.69
59240;BME280;45010;53.640;10.578;2024-02-21T13:18:03;100599.50;;;27.38;31.22
59240;BME280;45010;53.640;10.578;2024-02-21T13:21:05;100582.56;;;27.32;31.25
59240;BME280;45010;53.640;10.578;2024-02-21T13:24:06;100566.66;;;27.20;31.78
59240;BME280;45010;53.640;10.578;2024-02-21T13:27:06;100592.50;;;27.37;31.60
59240;BME280;45010;53.640;10.578;2024-02-21T13:30:07;100571.56;;;27.29;31.26
59240;BME280;45010;53.640;10.578;2024-02-21T13:33:09;100572.66;;;27.33;31.24
59240;BME280;45010;53.640;10.578;2024-02-21T13:36:10;100565.13;;;27.30;31.54
59240;BME280;45010;53.640;10.578;2024-02-21T13:39:11;100567.81;;;27.30;31.45
59240;BME280;45010;53.640;10.578;2024-02-21T13:42:15;100560.03;;;27.28;31.35
59240;BME280;45010;53.640;10.578;2024-02-21T13:45:15;100547.97;;;27.25;31.30
59240;BME280;45010;53.640;10.578;2024-02-21T13:48:16;100531.09;;;27.25;31.53
59240;BME280;45010;53.640;10.578;2024-02-21T13:51:16;100532.41;;;27.22;31.61
59240;BME280;45010;53.640;10.578;2024-02-21T13:54:17;100523.84;;;27.20;31.25
59240;BME280;45010;53.640;10.578;2024-02-21T13:57:19;100519.50;;;27.19;31.35
59240;BME280;45010;53.640;10.578;2024-02-21T14:00:19;100506.66;;;27.16;31.62
59240;BME280;45010;53.640;10.578;2024-02-21T14:03:20;100498.06;;;27.14;31.77
59240;BME280;45010;53.640;10.578;2024-02-21T14:06:20;100491.09;;;27.13;31.68
59240;BME280;45010;53.640;10.578;2024-02-21T14:09:21;100488.69;;;27.11;31.51
59240;BME280;45010;53.640;10.578;2024-02-21T14:12:21;100493.22;;;27.11;32.02
59240;BME280;45010;53.640;10.578;2024-02-21T14:15:21;100472.88;;;27.10;31.75
59240;BME280;45010;53.640;10.578;2024-02-21T14:18:22;100461.09;;;27.11;31.92
59240;BME280;45010;53.640;10.578;2024-02-21T14:21:22;100457.34;;;27.12;31.62
59240;BME280;45010;53.640;10.578;2024-02-21T14:24:23;100448.53;;;27.11;31.44
59240;BME280;45010;53.640;10.578;2024-02-21T14:27:23;100434.31;;;27.11;32.05
59240;BME280;45010;53.640;10.578;2024-02-21T14:30:24;100426.28;;;27.11;31.96
59240;BME280;45010;53.640;10.578;2024-02-21T14:33:28;100419.34;;;27.10;31.65
59240;BME280;45010;53.640;10.578;2024-02-21T14:36:30;100403.75;;;27.02;31.73
59240;BME280;45010;53.640;10.578;2024-02-21T14:39:30;100401.09;;;27.07;31.71
59240;BME280;45010;53.640;10.578;2024-02-21T14:42:32;100394.94;;;27.06;31.59
59240;BME280;45010;53.640;10.578;2024-02-21T14:45:32;100383.44;;;27.06;32.05
59240;BME280;45010;53.640;10.578;2024-02-21T14:48:33;100380.22;;;27.04;31.73
59240;BME280;45010;53.640;10.578;2024-02-21T14:51:33;100370.28;;;27.04;31.69
59240;BME280;45010;53.640;10.578;2024-02-21T14:54:34;100357.97;;;27.03;31.74
59240;BME280;45010;53.640;10.578;2024-02-21T14:57:34;100357.19;;;27.03;32.02
59240;BME280;45010;53.640;10.578;2024-02-21T15:00:36;100340.22;;;26.92;31.99
59240;BME280;45010;53.640;10.578;2024-02-21T15:03:36;100352.91;;;27.02;31.57
59240;BME280;45010;53.640;10.578;2024-02-21T15:06:37;100341.13;;;27.03;32.09
59240;BME280;45010;53.640;10.578;2024-02-21T15:09:37;100346.47;;;27.03;32.20
59240;BME280;45010;53.640;10.578;2024-02-21T15:12:38;100346.47;;;27.03;32.23
59240;BME280;45010;53.640;10.578;2024-02-21T15:15:38;100335.22;;;27.01;32.29
59240;BME280;45010;53.640;10.578;2024-02-21T15:18:38;100330.44;;;27.03;32.26
59240;BME280;45010;53.640;10.578;2024-02-21T15:21:39;100326.16;;;27.07;31.88
59240;BME280;45010;53.640;10.578;2024-02-21T15:24:40;100320.78;;;27.07;32.14
59240;BME280;45010;53.640;10.578;2024-02-21T15:27:42;100316.25;;;27.07;32.10
59240;BME280;45010;53.640;10.578;2024-02-21T15:30:43;100301.44;;;26.94;32.21
59240;BME280;45010;53.640;10.578;2024-02-21T15:33:43;100316.00;;;27.09;32.04
59240;BME280;45010;53.640;10.578;2024-02-21T15:36:43;100304.72;;;27.07;32.07